SBAT Informações do Aeroporto

Informações da Pista
Pista 3 Comprimento 8202 ft Largura 98 ft
Elevação 0 ft Limite 0 ft Heading 0
Pista 21 Comprimento 8202 ft Largura 98 ft
Elevação 0 ft Limite 0 ft Heading 0
Frequências do Aeroporto
Tipo RDO Nome RDO Frequência 126.6 MHZ
Navaids do Aeroporto
Tipo VOR-DME Nome Alta Floresta Frequência 113400 KHZ
Tipo NDB Nome Alta Floresta Frequência 245 KHZ
Informações meteorológicas do aeroporto e NOTAM
ADDS - METARS form results

(0501 UTC 17 September 2019)
Data provider http://aviationweather.gov/metar/data/
 
Forecast for: SBAT (ALTA FLORESTA , BR)
Text: TAF SBAT 162117Z 1700/1712 34005KT 7000 NSCTN25/1711Z TX28/1712Z
Forecast period: 0000 to 1200 UTC 17 September 2019
Forecast type: FROM: standard forecast or significant change
Winds: from the NNW (340 degrees) at 6 MPH (5 knots; 2.6 m/s)
Visibility: 4 miles (7 km)
Ceiling: unknown
Clouds: missing
Weather: no significant weather forecast for this period
Text: PROB30 1710/1712 4000 BR FU RMK PHI
Forecast period: 1000 to 1200 UTC 17 September 2019
Forecast type: PROBABLE: 30 percent likelihood of the following during this time
Visibility: 2.49 miles (4.01 km)
Ceiling: unknown
Clouds: missing
Weather: BR FU  (mist, smoke)